createdAt,value
2018-07-19T00:01:27.770Z,23.40
2018-07-19T00:03:56.934Z,23.30
2018-07-19T00:06:26.077Z,23.40
2018-07-19T00:08:54.951Z,23.40
2018-07-19T00:11:24.023Z,23.40
2018-07-19T00:13:52.985Z,23.50
2018-07-19T00:16:21.989Z,23.50
2018-07-19T00:18:50.909Z,23.60
2018-07-19T00:21:19.827Z,23.60
2018-07-19T00:23:48.697Z,23.50
2018-07-19T00:26:17.649Z,23.50
2018-07-19T00:28:46.538Z,23.30
2018-07-19T00:31:15.407Z,23.30
2018-07-19T00:33:44.350Z,23.20
2018-07-19T00:36:13.268Z,23.10
2018-07-19T00:38:42.168Z,22.90
2018-07-19T00:41:11.299Z,22.70
2018-07-19T00:43:40.282Z,22.50
2018-07-19T00:46:09.171Z,22.30
2018-07-19T00:48:38.268Z,22.10
2018-07-19T00:51:07.348Z,22.20
2018-07-19T00:53:36.400Z,22.30
2018-07-19T00:56:05.384Z,22.40
2018-07-19T00:58:34.428Z,22.50
2018-07-19T01:01:03.331Z,22.50
2018-07-19T01:03:32.233Z,22.60
2018-07-19T01:06:01.119Z,22.50
2018-07-19T01:08:30.016Z,22.60
2018-07-19T01:10:59.000Z,22.50
2018-07-19T01:13:27.864Z,22.20
2018-07-19T01:15:56.775Z,21.90
2018-07-19T01:18:25.708Z,21.70
2018-07-19T01:20:54.676Z,21.60
2018-07-19T01:23:23.584Z,21.40
2018-07-19T01:25:52.651Z,21.30
2018-07-19T01:30:50.329Z,21.10
2018-07-19T01:33:19.423Z,21.00
2018-07-19T01:35:48.311Z,21.00
2018-07-19T01:38:17.212Z,20.80
2018-07-19T01:40:46.176Z,20.70
2018-07-19T01:43:15.068Z,20.70
2018-07-19T01:45:43.962Z,20.70
2018-07-19T01:48:12.868Z,20.70
2018-07-19T01:50:41.775Z,20.70
2018-07-19T01:53:10.783Z,20.80
2018-07-19T01:55:39.750Z,21.00
2018-07-19T01:58:08.672Z,21.20
2018-07-19T02:00:37.580Z,21.30
2018-07-19T02:03:06.455Z,21.20
2018-07-19T02:05:35.348Z,21.20
2018-07-19T02:08:04.410Z,21.10
2018-07-19T02:10:33.693Z,21.00
2018-07-19T02:15:31.059Z,21.00
2018-07-19T02:18:00.068Z,21.00
2018-07-19T02:20:29.027Z,21.00
2018-07-19T02:22:57.963Z,21.00
2018-07-19T02:25:26.844Z,20.90
2018-07-19T02:27:55.738Z,20.80
2018-07-19T02:30:24.655Z,20.70
2018-07-19T02:32:53.542Z,20.70
2018-07-19T02:35:22.441Z,20.80
2018-07-19T02:37:51.319Z,20.90
2018-07-19T02:40:20.206Z,21.00
2018-07-19T02:42:49.080Z,21.00
2018-07-19T02:45:18.034Z,20.90
2018-07-19T02:47:46.907Z,20.70
2018-07-19T02:50:15.836Z,20.70
2018-07-19T02:52:44.756Z,20.60
2018-07-19T02:55:13.680Z,20.60
2018-07-19T02:57:42.591Z,20.70
2018-07-19T03:00:11.623Z,20.90
2018-07-19T03:02:40.557Z,21.10
2018-07-19T03:05:09.899Z,21.20
2018-07-19T03:07:38.924Z,21.10
2018-07-19T03:10:07.936Z,21.00
2018-07-19T03:12:36.826Z,21.10
2018-07-19T03:15:06.266Z,21.10
2018-07-19T03:17:35.222Z,21.20
2018-07-19T03:20:04.434Z,21.20
2018-07-19T03:22:33.330Z,21.20
2018-07-19T03:25:02.272Z,21.20
2018-07-19T03:27:31.137Z,21.30
2018-07-19T03:30:00.201Z,21.30
2018-07-19T03:32:29.154Z,21.30
2018-07-19T03:34:58.121Z,21.20
2018-07-19T03:37:27.059Z,21.30
2018-07-19T03:39:55.944Z,21.30
2018-07-19T03:42:24.880Z,21.30
2018-07-19T03:44:54.092Z,21.30
2018-07-19T03:47:23.025Z,21.40
2018-07-19T03:49:51.939Z,21.40
2018-07-19T03:52:20.984Z,21.30
2018-07-19T03:54:49.967Z,21.20
2018-07-19T03:57:18.847Z,21.00
2018-07-19T03:59:47.728Z,20.70
2018-07-19T04:02:16.641Z,20.50
2018-07-19T04:04:45.554Z,20.40
2018-07-19T04:07:14.500Z,20.30
2018-07-19T04:09:43.360Z,20.20
2018-07-19T04:12:13.935Z,20.20
2018-07-19T04:14:42.966Z,20.20
2018-07-19T04:19:40.300Z,20.40
2018-07-19T04:22:09.179Z,20.50
2018-07-19T04:24:38.438Z,20.40
2018-07-19T04:29:36.032Z,20.60
2018-07-19T04:32:05.078Z,20.70
2018-07-19T04:34:34.333Z,20.80
2018-07-19T04:37:03.225Z,20.80
2018-07-19T04:39:32.352Z,20.70
2018-07-19T04:42:01.256Z,20.60
2018-07-19T04:44:31.364Z,20.40
2018-07-19T04:47:00.429Z,20.40
2018-07-19T04:49:29.328Z,20.40
2018-07-19T04:51:58.244Z,20.40
2018-07-19T04:54:27.442Z,20.70
2018-07-19T04:56:56.348Z,20.50
2018-07-19T04:59:25.365Z,20.60
2018-07-19T05:01:54.474Z,20.70
2018-07-19T05:04:23.325Z,20.70
2018-07-19T05:06:52.258Z,20.60
2018-07-19T05:09:21.171Z,20.80
2018-07-19T05:11:50.167Z,20.90
2018-07-19T05:14:19.167Z,21.20
2018-07-19T05:16:48.112Z,21.40
2018-07-19T05:19:16.965Z,21.50
2018-07-19T05:21:45.899Z,21.70
2018-07-19T05:24:14.996Z,21.90
2018-07-19T05:26:43.956Z,22.20
2018-07-19T05:29:12.823Z,22.40
2018-07-19T05:31:41.768Z,22.60
2018-07-19T05:34:10.657Z,22.60
2018-07-19T05:36:39.893Z,22.70
2018-07-19T05:39:08.811Z,22.80
2018-07-19T05:41:37.731Z,22.90
2018-07-19T05:44:06.699Z,23.10
2018-07-19T05:46:35.753Z,23.00
2018-07-19T05:49:05.247Z,22.90
2018-07-19T05:51:34.503Z,22.80
2018-07-19T05:54:03.415Z,22.80
2018-07-19T05:56:32.336Z,22.80
2018-07-19T05:59:01.265Z,22.70
2018-07-19T06:01:30.273Z,22.60
2018-07-19T06:03:59.179Z,22.60
2018-07-19T06:06:28.072Z,22.60
2018-07-19T06:08:57.209Z,22.60
2018-07-19T06:16:23.211Z,22.70
2018-07-19T06:18:52.369Z,22.70
2018-07-19T06:21:21.280Z,22.90
2018-07-19T06:23:50.192Z,23.00
2018-07-19T06:28:47.676Z,23.00
2018-07-19T06:31:16.590Z,23.20
2018-07-19T06:33:45.460Z,23.50
2018-07-19T06:36:14.347Z,23.90
2018-07-19T06:38:43.268Z,24.30
2018-07-19T06:41:12.181Z,24.60
2018-07-19T06:43:41.105Z,24.80
2018-07-19T06:46:10.024Z,25.00
2018-07-19T06:48:38.979Z,25.20
2018-07-19T06:51:07.892Z,25.30
2018-07-19T06:53:36.967Z,25.30
2018-07-19T06:56:05.948Z,25.20
2018-07-19T06:58:34.907Z,25.00
2018-07-19T07:01:03.813Z,24.80
2018-07-19T07:03:32.858Z,24.70
2018-07-19T07:06:01.800Z,24.60
2018-07-19T07:08:30.951Z,24.60
2018-07-19T07:10:59.854Z,24.60
2018-07-19T07:13:28.820Z,24.60
2018-07-19T07:15:57.978Z,24.60
2018-07-19T07:18:26.879Z,24.60
2018-07-19T07:20:55.771Z,24.60
2018-07-19T07:23:24.980Z,24.70
2018-07-19T07:25:54.211Z,24.60
2018-07-19T07:28:23.489Z,24.60
2018-07-19T07:30:53.259Z,24.60
2018-07-19T07:33:22.158Z,24.70
2018-07-19T07:35:51.159Z,24.80
2018-07-19T07:38:20.122Z,24.90
2018-07-19T07:40:49.047Z,25.00
2018-07-19T07:43:18.148Z,25.10
2018-07-19T07:45:47.044Z,25.30
2018-07-19T07:48:15.940Z,25.30
2018-07-19T07:50:44.958Z,25.50
2018-07-19T07:53:13.912Z,25.50
2018-07-19T07:55:42.801Z,25.60
2018-07-19T07:58:12.808Z,25.70
2018-07-19T08:00:41.788Z,25.70
2018-07-19T08:03:10.760Z,25.80
2018-07-19T08:05:39.704Z,25.80
2018-07-19T08:08:08.584Z,25.80
2018-07-19T08:10:37.695Z,25.80
2018-07-19T08:13:06.683Z,25.80
2018-07-19T08:15:35.769Z,25.90
2018-07-19T08:18:04.553Z,25.80
2018-07-19T08:20:33.544Z,25.80
2018-07-19T08:23:02.637Z,25.80
2018-07-19T08:25:32.292Z,25.90
2018-07-19T08:28:01.193Z,25.90
2018-07-19T08:30:30.088Z,25.90
2018-07-19T08:32:59.134Z,26.00
2018-07-19T08:35:28.267Z,26.10
2018-07-19T08:37:57.355Z,26.20
2018-07-19T08:40:26.455Z,26.20
2018-07-19T08:42:55.355Z,26.30
2018-07-19T08:45:24.259Z,26.30
2018-07-19T08:47:53.160Z,26.30
2018-07-19T08:50:22.140Z,26.30
2018-07-19T08:52:51.037Z,26.30
2018-07-19T08:55:20.482Z,26.30
2018-07-19T09:00:18.280Z,26.20
2018-07-19T09:02:47.229Z,26.20
2018-07-19T09:05:16.155Z,26.20
2018-07-19T09:07:45.084Z,26.20
2018-07-19T09:10:14.413Z,26.20
2018-07-19T09:12:43.456Z,26.30
2018-07-19T09:15:12.403Z,26.40
2018-07-19T09:17:41.327Z,26.40
2018-07-19T09:20:10.334Z,26.60
2018-07-19T09:22:39.299Z,26.70
2018-07-19T09:25:08.267Z,26.70
2018-07-19T09:27:37.170Z,26.80
2018-07-19T09:30:06.689Z,26.60
2018-07-19T09:32:35.735Z,26.80
2018-07-19T09:35:04.694Z,26.90
2018-07-19T09:37:33.900Z,27.00
2018-07-19T09:40:03.328Z,27.10
2018-07-19T09:42:32.241Z,27.10
2018-07-19T09:45:01.110Z,27.20
2018-07-19T09:47:29.976Z,27.30
2018-07-19T09:49:59.127Z,27.40
2018-07-19T09:52:28.071Z,27.50
2018-07-19T09:54:57.545Z,27.50
2018-07-19T09:57:26.638Z,27.60
2018-07-19T09:59:55.860Z,27.70
2018-07-19T10:02:24.748Z,27.80
2018-07-19T10:04:53.770Z,27.80
2018-07-19T10:07:22.617Z,27.90
2018-07-19T10:09:51.552Z,27.90
2018-07-19T10:12:20.431Z,28.00
2018-07-19T10:14:49.332Z,28.00
2018-07-19T10:17:18.315Z,28.00
2018-07-19T10:19:47.120Z,28.00
2018-07-19T10:22:16.685Z,28.00
2018-07-19T10:24:45.609Z,28.00
2018-07-19T10:27:14.497Z,28.00
2018-07-19T10:29:43.356Z,27.70
2018-07-19T10:32:12.382Z,27.80
2018-07-19T10:34:41.132Z,27.90
2018-07-19T10:37:10.109Z,27.90
2018-07-19T10:39:39.323Z,28.00
2018-07-19T10:42:08.825Z,27.80
2018-07-19T10:44:37.805Z,28.00
2018-07-19T10:47:06.718Z,28.00
2018-07-19T10:49:35.568Z,28.00
2018-07-19T10:52:04.765Z,28.00
2018-07-19T10:54:33.774Z,27.90
2018-07-19T10:57:02.660Z,27.90
2018-07-19T10:59:31.532Z,27.90
2018-07-19T11:02:00.451Z,28.00
2018-07-19T11:04:29.406Z,28.20
2018-07-19T11:06:58.467Z,28.50
2018-07-19T11:09:27.355Z,28.60
2018-07-19T11:11:56.309Z,28.80
2018-07-19T11:14:25.167Z,28.80
2018-07-19T11:16:54.318Z,28.80
2018-07-19T11:19:23.279Z,28.60
2018-07-19T11:21:52.223Z,28.30
2018-07-19T11:24:21.126Z,28.20
2018-07-19T11:26:50.092Z,28.20
2018-07-19T11:29:19.040Z,28.30
2018-07-19T11:31:48.273Z,28.40
2018-07-19T11:34:17.231Z,28.60
2018-07-19T11:36:46.139Z,28.70
2018-07-19T11:39:14.975Z,28.70
2018-07-19T11:41:44.562Z,28.70
2018-07-19T11:44:13.495Z,28.70
2018-07-19T11:46:43.518Z,28.70
2018-07-19T11:49:12.668Z,28.70
2018-07-19T11:51:44.376Z,28.80
2018-07-19T11:54:13.413Z,28.60
2018-07-19T11:56:42.274Z,28.60
2018-07-19T11:59:11.533Z,28.70
2018-07-19T12:01:40.621Z,28.60
2018-07-19T12:04:10.649Z,28.30
2018-07-19T12:06:39.612Z,28.50
2018-07-19T12:11:37.245Z,28.20
2018-07-19T12:14:06.300Z,28.30
2018-07-19T12:16:35.316Z,28.40
2018-07-19T12:19:04.542Z,28.30
2018-07-19T12:21:33.412Z,28.10
2018-07-19T12:24:02.298Z,28.10
2018-07-19T12:26:31.220Z,28.20
2018-07-19T12:29:00.264Z,28.40
2018-07-19T12:31:29.321Z,28.60
2018-07-19T12:33:58.479Z,28.90
2018-07-19T12:36:27.562Z,29.10
2018-07-19T12:38:56.595Z,29.20
2018-07-19T12:41:25.748Z,29.10
2018-07-19T12:43:54.619Z,29.30
2018-07-19T12:46:23.679Z,29.50
2018-07-19T12:48:52.585Z,29.60
2018-07-19T12:51:21.476Z,29.80
2018-07-19T12:53:50.583Z,30.00
2018-07-19T12:56:19.588Z,30.20
2018-07-19T12:58:49.260Z,30.30
2018-07-19T13:01:18.247Z,30.40
2018-07-19T13:03:47.535Z,30.50
2018-07-19T13:06:16.419Z,30.60
2018-07-19T13:08:45.245Z,30.60
2018-07-19T13:11:14.117Z,30.70
2018-07-19T13:13:43.400Z,30.70
2018-07-19T13:16:12.932Z,30.80
2018-07-19T13:18:41.789Z,30.80
2018-07-19T13:21:10.810Z,30.80
2018-07-19T13:23:40.002Z,30.60
2018-07-19T13:26:08.973Z,30.70
2018-07-19T13:28:38.003Z,30.70
2018-07-19T13:31:07.700Z,30.60
2018-07-19T13:36:06.368Z,30.80
2018-07-19T13:41:04.155Z,30.80
2018-07-19T13:43:33.091Z,30.60
2018-07-19T13:46:02.083Z,30.60
2018-07-19T13:48:32.132Z,30.60
2018-07-19T13:51:01.142Z,30.40
2018-07-19T13:53:41.207Z,30.30
2018-07-19T13:56:10.222Z,30.10
2018-07-19T13:58:40.108Z,30.20
2018-07-19T14:01:09.091Z,30.30
2018-07-19T14:03:37.943Z,30.30
2018-07-19T14:06:06.873Z,30.30
2018-07-19T14:08:35.716Z,30.30
2018-07-19T14:11:04.675Z,30.30
2018-07-19T14:13:33.560Z,30.20
2018-07-19T14:16:02.498Z,30.10
2018-07-19T14:18:31.384Z,29.90
2018-07-19T14:21:00.355Z,29.80
2018-07-19T14:23:29.259Z,29.50
2018-07-19T14:25:58.204Z,29.40
2018-07-19T14:28:27.093Z,29.50
2018-07-19T14:30:55.928Z,29.40
2018-07-19T14:33:25.044Z,29.20
2018-07-19T14:35:53.962Z,29.00
2018-07-19T14:38:23.043Z,29.10
2018-07-19T14:40:52.146Z,29.20
2018-07-19T14:43:21.554Z,29.00
2018-07-19T14:45:50.485Z,29.00
2018-07-19T14:48:19.620Z,29.00
2018-07-19T14:50:48.462Z,28.90
2018-07-19T14:53:17.332Z,29.00
2018-07-19T14:55:46.229Z,29.30
2018-07-19T14:58:15.383Z,29.40
2018-07-19T15:00:44.287Z,29.50
2018-07-19T15:03:13.492Z,29.70
2018-07-19T15:05:42.456Z,29.80
2018-07-19T15:08:11.379Z,30.00
2018-07-19T15:10:40.379Z,30.10
2018-07-19T15:13:09.287Z,30.20
2018-07-19T15:15:38.159Z,30.10
2018-07-19T15:18:07.131Z,30.00
2018-07-19T15:20:36.227Z,30.10
2018-07-19T15:23:05.412Z,30.10
2018-07-19T15:25:34.331Z,30.10
2018-07-19T15:28:03.261Z,29.90
2018-07-19T15:30:32.885Z,29.70
2018-07-19T15:33:01.947Z,29.80
2018-07-19T15:35:30.825Z,29.80
2018-07-19T15:37:59.880Z,29.90
2018-07-19T15:40:28.727Z,29.90
2018-07-19T15:42:58.244Z,30.00
2018-07-19T15:45:27.117Z,30.00
2018-07-19T15:47:56.004Z,30.00
2018-07-19T15:50:24.921Z,30.00
2018-07-19T15:52:53.816Z,29.90
2018-07-19T15:55:22.741Z,30.00
2018-07-19T15:57:51.632Z,30.00
2018-07-19T16:00:20.517Z,30.20
2018-07-19T16:02:49.374Z,30.20
2018-07-19T16:05:18.284Z,30.40
2018-07-19T16:07:47.147Z,30.50
2018-07-19T16:10:16.032Z,30.70
2018-07-19T16:12:45.082Z,30.80
2018-07-19T16:15:14.080Z,30.90
2018-07-19T16:17:43.059Z,30.90
2018-07-19T16:22:40.640Z,30.90
2018-07-19T16:25:09.551Z,30.60
2018-07-19T16:27:38.797Z,30.60
2018-07-19T16:30:07.651Z,30.60
2018-07-19T16:32:36.579Z,30.60
2018-07-19T16:35:05.497Z,30.60
2018-07-19T16:37:34.874Z,30.60
2018-07-19T16:40:03.984Z,30.60
2018-07-19T16:42:33.072Z,30.60
2018-07-19T16:45:01.933Z,30.60
2018-07-19T16:47:30.899Z,30.70
2018-07-19T16:49:59.947Z,30.60
2018-07-19T16:52:28.824Z,30.60
2018-07-19T16:54:58.144Z,30.40
2018-07-19T16:57:27.090Z,30.40
2018-07-19T16:59:55.987Z,30.30
2018-07-19T17:02:25.132Z,30.20
2018-07-19T17:07:22.562Z,30.10
2018-07-19T17:09:51.490Z,30.00
2018-07-19T17:12:20.432Z,30.00
2018-07-19T17:14:49.456Z,29.90
2018-07-19T17:19:47.120Z,29.90
2018-07-19T17:27:14.851Z,30.10
2018-07-19T17:29:43.991Z,30.10
2018-07-19T17:32:12.876Z,30.20
2018-07-19T17:34:41.763Z,30.20
2018-07-19T17:37:10.965Z,30.20
2018-07-19T17:39:39.868Z,30.30
2018-07-19T17:42:08.800Z,30.40
2018-07-19T17:44:37.671Z,30.40
2018-07-19T17:47:06.785Z,30.40
2018-07-19T17:49:35.888Z,30.40
2018-07-19T17:52:05.073Z,30.20
2018-07-19T17:54:34.569Z,30.10
2018-07-19T17:57:03.504Z,30.00
2018-07-19T17:59:32.474Z,29.90
2018-07-19T18:02:01.424Z,29.80
2018-07-19T18:04:30.392Z,29.80
2018-07-19T18:06:59.335Z,29.70
2018-07-19T18:09:28.267Z,29.50
2018-07-19T18:11:57.252Z,29.50
2018-07-19T18:14:26.335Z,29.40
2018-07-19T18:16:55.260Z,29.40
2018-07-19T18:19:24.117Z,29.40
2018-07-19T18:21:53.083Z,29.30
2018-07-19T18:24:21.956Z,29.30
2018-07-19T18:26:50.859Z,29.30
2018-07-19T18:29:19.947Z,29.30
2018-07-19T18:31:48.855Z,29.20
2018-07-19T18:34:17.936Z,29.10
2018-07-19T18:36:46.831Z,29.10
2018-07-19T18:39:15.742Z,29.10
2018-07-19T18:41:44.736Z,29.00
2018-07-19T18:44:13.647Z,29.00
2018-07-19T18:46:42.604Z,28.90
2018-07-19T18:49:11.516Z,28.90
2018-07-19T18:51:41.084Z,28.70
2018-07-19T18:54:10.045Z,28.50
2018-07-19T18:56:38.953Z,28.40
2018-07-19T19:01:36.469Z,28.20
2018-07-19T19:04:05.439Z,28.10
2018-07-19T19:09:03.170Z,27.90
2018-07-19T19:11:32.300Z,27.80
2018-07-19T19:16:30.252Z,27.70
2018-07-19T19:18:59.268Z,27.60
2018-07-19T19:21:28.376Z,27.60
2018-07-19T19:23:57.294Z,27.50
2018-07-19T19:26:26.238Z,27.40
2018-07-19T19:28:55.949Z,27.30
2018-07-19T19:31:25.013Z,27.30
2018-07-19T19:33:53.972Z,27.20
2018-07-19T19:36:23.174Z,27.20
2018-07-19T19:38:52.073Z,27.10
2018-07-19T19:41:21.056Z,27.00
2018-07-19T19:43:50.399Z,27.00
2018-07-19T19:46:19.757Z,26.90
2018-07-19T19:48:48.655Z,26.90
2018-07-19T19:51:17.667Z,26.80
2018-07-19T19:53:46.626Z,26.70
2018-07-19T19:56:15.575Z,26.60
2018-07-19T19:58:44.566Z,26.50
2018-07-19T20:01:13.526Z,26.40
2018-07-19T20:03:42.532Z,26.40
2018-07-19T20:06:12.338Z,26.30
2018-07-19T20:08:41.691Z,26.30
2018-07-19T20:11:10.812Z,26.20
2018-07-19T20:13:39.953Z,26.10
2018-07-19T20:16:08.859Z,26.00
2018-07-19T20:18:38.317Z,25.90
2018-07-19T20:21:07.175Z,25.80
2018-07-19T20:23:36.182Z,25.70
2018-07-19T20:26:05.130Z,25.60
2018-07-19T20:28:34.221Z,25.50
2018-07-19T20:31:03.125Z,25.50
2018-07-19T20:33:32.006Z,25.50
2018-07-19T20:36:01.168Z,25.50
2018-07-19T20:38:30.077Z,25.50
2018-07-19T20:40:59.019Z,25.40
2018-07-19T20:43:28.044Z,25.30
2018-07-19T20:45:56.961Z,25.30
2018-07-19T20:48:26.127Z,25.20
2018-07-19T20:50:55.135Z,25.20
2018-07-19T20:53:24.164Z,25.20
2018-07-19T20:55:53.196Z,25.20
2018-07-19T20:58:22.252Z,25.10
2018-07-19T21:00:51.228Z,25.00
2018-07-19T21:03:20.377Z,24.90
2018-07-19T21:05:49.267Z,24.90
2018-07-19T21:08:18.158Z,24.90
2018-07-19T21:10:47.032Z,24.90
2018-07-19T21:13:16.161Z,24.70
2018-07-19T21:15:45.039Z,24.80
2018-07-19T21:18:14.027Z,24.70
2018-07-19T21:20:42.859Z,24.70
2018-07-19T21:23:11.770Z,24.60
2018-07-19T21:25:40.646Z,24.70
2018-07-19T21:28:09.552Z,24.60
2018-07-19T21:30:38.665Z,24.60
2018-07-19T21:33:07.607Z,24.50
2018-07-19T21:35:36.531Z,24.50
2018-07-19T21:38:05.440Z,24.40
2018-07-19T21:40:34.416Z,24.40
2018-07-19T21:43:03.392Z,24.40
2018-07-19T21:45:32.279Z,24.30
2018-07-19T21:48:01.302Z,24.30
2018-07-19T21:50:30.186Z,24.20
2018-07-19T21:52:59.176Z,24.10
2018-07-19T21:55:28.136Z,24.00
2018-07-19T21:57:57.050Z,24.00
2018-07-19T22:00:26.155Z,24.00
2018-07-19T22:02:55.160Z,23.80
2018-07-19T22:05:24.316Z,23.70
2018-07-19T22:07:53.223Z,23.60
2018-07-19T22:10:22.302Z,23.60
2018-07-19T22:12:51.203Z,23.60
2018-07-19T22:15:20.125Z,23.60
2018-07-19T22:17:49.046Z,23.70
2018-07-19T22:20:18.098Z,23.70
2018-07-19T22:22:47.160Z,23.70
2018-07-19T22:25:16.063Z,23.60
2018-07-19T22:27:44.932Z,23.50
2018-07-19T22:30:13.919Z,23.50
2018-07-19T22:32:42.928Z,23.50
2018-07-19T22:35:11.895Z,23.30
2018-07-19T22:37:40.776Z,23.20
2018-07-19T22:40:09.647Z,23.20
2018-07-19T22:42:38.656Z,23.20
2018-07-19T22:45:07.567Z,23.10
2018-07-19T22:47:36.452Z,23.10
2018-07-19T22:50:05.548Z,23.10
2018-07-19T22:52:34.491Z,23.10
2018-07-19T22:55:03.510Z,23.10
2018-07-19T22:57:32.394Z,23.00
2018-07-19T23:00:01.281Z,23.00
2018-07-19T23:02:30.173Z,23.00
2018-07-19T23:04:59.058Z,23.10
2018-07-19T23:07:27.946Z,23.20
2018-07-19T23:09:56.839Z,23.20
2018-07-19T23:12:25.735Z,23.30
2018-07-19T23:14:54.588Z,23.30
2018-07-19T23:17:23.503Z,23.20
2018-07-19T23:19:52.384Z,23.20
2018-07-19T23:22:21.291Z,23.20
2018-07-19T23:24:50.167Z,23.30
2018-07-19T23:27:19.087Z,23.20
2018-07-19T23:29:48.031Z,23.20
2018-07-19T23:32:16.907Z,23.20
2018-07-19T23:34:45.852Z,23.10
2018-07-19T23:37:14.719Z,23.10
2018-07-19T23:39:43.803Z,23.10
2018-07-19T23:42:12.777Z,23.10
2018-07-19T23:44:41.863Z,23.00
2018-07-19T23:47:10.945Z,23.00
2018-07-19T23:49:39.836Z,22.90
2018-07-19T23:52:08.674Z,22.90
2018-07-19T23:54:37.584Z,22.90
2018-07-19T23:57:06.547Z,22.80
2018-07-19T23:59:35.422Z,23.00
